Time;durP1;ratioP1;P1;durP2;ratioP2;P2;SDS_P1;SDS_P2;PMS_P1;PMS_P2;Temp;Humidity;BMP_temperature;BMP_pressure;BME280_temperature;BME280_humidity;BME280_pressure;Samples;Min_cycle;Max_cycle;Signal;HPM_P1;HPM_P2
2022/01/08 00:02:25;;;;;;;;;;;;;;;-0.22;68.05;95806.06;6357028;27;19923;-63
2022/01/08 00:05:26;;;;;;;;;;;;;;;-0.19;67.51;95825.78;6374778;27;19923;-63
2022/01/08 00:08:27;;;;;;;;;;;;;;;-0.34;68.16;95830.66;6374809;27;19928;-63
2022/01/08 00:11:31;;;;;;;;;;;;;;;-0.54;67.77;95836.59;6374698;27;20299;-62
2022/01/08 00:14:35;;;;;;;;;;;;;;;-0.54;67.64;95831.41;6374734;27;19923;-63
2022/01/08 00:17:41;;;;;;;;;;;;;;;-0.51;67.98;95833.88;6374340;27;19920;-63
2022/01/08 00:20:42;;;;;;;;;;;;;;;-0.63;67.71;95831.75;6372794;27;19924;-63
2022/01/08 00:23:45;;;;;;;;;;;;;;;-0.39;67.22;95835.16;6374464;27;19923;-63
2022/01/08 00:26:46;;;;;;;;;;;;;;;-0.34;65.92;95845.28;6374202;27;19930;-63
2022/01/08 00:29:52;;;;;;;;;;;;;;;-0.14;65.09;95840.22;6374256;27;19991;-62
2022/01/08 00:32:53;;;;;;;;;;;;;;;-0.19;63.72;95847.31;6373344;27;20312;-63
2022/01/08 00:35:54;;;;;;;;;;;;;;;-0.13;63.88;95847.06;6374148;27;19923;-63
2022/01/08 00:38:59;;;;;;;;;;;;;;;-0.15;64.65;95851.44;6374104;27;19946;-63
2022/01/08 00:42:00;;;;;;;;;;;;;;;-0.19;64.28;95857.66;6374036;27;19927;-63
2022/01/08 00:45:06;;;;;;;;;;;;;;;-0.18;64.43;95859.31;6373929;27;19924;-62
2022/01/08 00:48:07;;;;;;;;;;;;;;;-0.24;65.76;95862.16;6372547;27;20408;-62
2022/01/08 00:51:08;;;;;;;;;;;;;;;-0.19;67.25;95873.16;6373136;27;19924;-62
2022/01/08 00:54:09;;;;;;;;;;;;;;;-0.17;67.98;95865.31;6373816;27;19931;-63
2022/01/08 00:57:10;;;;;;;;;;;;;;;-0.15;68.63;95864.38;6373512;27;19931;-63
2022/01/08 01:00:12;;;;;;;;;;;;;;;-0.31;69.49;95869.31;6373383;27;19923;-63
2022/01/08 01:03:13;;;;;;;;;;;;;;;-0.52;70.63;95870.94;6372347;27;19924;-63
2022/01/08 01:06:19;;;;;;;;;;;;;;;-0.72;70.96;95869.09;6372543;27;20026;-62
2022/01/08 01:09:20;;;;;;;;;;;;;;;-0.69;71.52;95865.56;6354861;27;19935;-62
2022/01/08 01:12:21;;;;;;;;;;;;;;;-0.98;72.20;95872.63;6354352;27;19980;-62
2022/01/08 01:15:22;;;;;;;;;;;;;;;-1.36;73.64;95855.88;6372345;27;19923;-62
2022/01/08 01:18:25;;;;;;;;;;;;;;;-1.28;73.86;95871.09;6371363;27;19923;-61
2022/01/08 01:21:26;;;;;;;;;;;;;;;-1.44;75.25;95888.84;6372827;27;19923;-62
2022/01/08 01:24:28;;;;;;;;;;;;;;;-1.59;75.11;95880.69;6372074;27;19973;-62
2022/01/08 01:28:21;;;;;;;;;;;;;;;-1.65;75.25;95877.50;6372618;27;19924;-61
2022/01/08 01:41:09;;;;;;;;;;;;;;;-1.36;74.95;95887.69;6360926;27;19923;-62
2022/01/08 01:47:21;;;;;;;;;;;;;;;-0.93;69.21;95885.38;6371628;27;19992;-63
2022/01/08 01:50:22;;;;;;;;;;;;;;;-1.05;70.01;95888.38;6372089;27;20261;-63
2022/01/08 01:53:26;;;;;;;;;;;;;;;-0.78;68.54;95883.97;6371363;27;19924;-62
2022/01/08 01:56:29;;;;;;;;;;;;;;;-0.82;68.30;95877.22;6372300;27;19923;-62
2022/01/08 01:59:31;;;;;;;;;;;;;;;-0.95;68.29;95888.00;6371335;27;19930;-63
2022/01/08 02:02:32;;;;;;;;;;;;;;;-0.98;67.78;95890.69;6371168;27;20025;-62
2022/01/08 02:05:35;;;;;;;;;;;;;;;-0.84;66.39;95892.78;6371272;27;19926;-63
2022/01/08 02:08:41;;;;;;;;;;;;;;;-0.74;64.17;95890.72;6371439;27;19980;-63
2022/01/08 02:11:57;;;;;;;;;;;;;;;-0.78;63.38;95883.97;6371989;27;19930;-63
2022/01/08 02:14:58;;;;;;;;;;;;;;;-0.89;63.91;95891.28;6371948;27;20107;-62
2022/01/08 02:17:59;;;;;;;;;;;;;;;-1.00;63.92;95882.16;6371626;27;19919;-62
2022/01/08 02:21:01;;;;;;;;;;;;;;;-0.89;63.24;95891.28;6371563;27;19930;-63
2022/01/08 02:24:05;;;;;;;;;;;;;;;-1.10;63.96;95882.50;6371938;28;19923;-62
2022/01/08 02:27:08;;;;;;;;;;;;;;;-1.36;64.38;95872.22;6371763;28;19923;-62
2022/01/08 02:30:12;;;;;;;;;;;;;;;-1.50;65.01;95878.72;6370824;28;19930;-62
2022/01/08 02:33:13;;;;;;;;;;;;;;;-1.37;64.75;95875.69;6370601;28;20278;-62
2022/01/08 02:36:17;;;;;;;;;;;;;;;-1.42;64.42;95877.56;6370774;28;19923;-63
2022/01/08 02:39:18;;;;;;;;;;;;;;;-1.47;64.41;95874.31;6371543;28;19930;-63
2022/01/08 02:42:24;;;;;;;;;;;;;;;-1.56;64.54;95874.59;6371139;28;20019;-63
2022/01/08 02:45:25;;;;;;;;;;;;;;;-1.55;64.46;95871.16;6371607;28;19923;-62
2022/01/08 02:48:26;;;;;;;;;;;;;;;-1.66;64.00;95878.41;6370983;28;19924;-62
2022/01/08 02:51:27;;;;;;;;;;;;;;;-1.51;63.23;95870.13;6370679;28;19935;-62
2022/01/08 02:54:28;;;;;;;;;;;;;;;-1.56;63.16;95864.28;6371442;28;19938;-62
2022/01/08 02:57:32;;;;;;;;;;;;;;;-1.74;63.67;95862.31;6371356;28;19923;-62
2022/01/08 03:00:33;;;;;;;;;;;;;;;-1.88;64.08;95858.44;6370942;28;20308;-63
2022/01/08 03:03:36;;;;;;;;;;;;;;;-1.82;64.28;95863.41;6370509;28;20411;-64
2022/01/08 03:06:42;;;;;;;;;;;;;;;-1.85;63.96;95860.94;6371287;28;19923;-63
2022/01/08 03:09:45;;;;;;;;;;;;;;;-1.84;64.04;95854.03;6370487;28;19946;-63
2022/01/08 03:12:49;;;;;;;;;;;;;;;-1.98;63.85;95862.22;6371295;28;20304;-62
2022/01/08 03:15:50;;;;;;;;;;;;;;;-1.84;64.47;95864.34;6370814;28;20312;-62
2022/01/08 03:18:51;;;;;;;;;;;;;;;-1.91;64.53;95858.56;6371131;28;19930;-63
2022/01/08 03:21:54;;;;;;;;;;;;;;;-1.79;65.07;95865.03;6371082;28;19930;-63
2022/01/08 03:24:55;;;;;;;;;;;;;;;-1.69;64.75;95860.44;6370087;28;19923;-63
2022/01/08 03:27:59;;;;;;;;;;;;;;;-1.64;65.71;95861.16;6370892;27;19927;-63
2022/01/08 03:31:00;;;;;;;;;;;;;;;-1.59;65.73;95865.22;6375472;27;19930;-63
2022/01/08 03:34:01;;;;;;;;;;;;;;;-1.52;65.71;95871.03;6374839;27;19924;-62
2022/01/08 03:37:07;;;;;;;;;;;;;;;-1.38;65.64;95879.16;6375617;27;19923;-62
2022/01/08 03:40:08;;;;;;;;;;;;;;;-1.43;66.08;95875.88;6375293;27;19930;-62
2022/01/08 03:43:09;;;;;;;;;;;;;;;-1.41;66.02;95875.84;6375054;27;19923;-62
2022/01/08 03:46:11;;;;;;;;;;;;;;;-1.31;66.14;95873.78;6374489;27;19930;-62
2022/01/08 03:52:13;;;;;;;;;;;;;;;-1.39;66.48;95874.91;6374345;27;19923;-63
2022/01/08 03:55:14;;;;;;;;;;;;;;;-1.34;66.22;95871.31;6372934;27;19924;-63
2022/01/08 03:58:16;;;;;;;;;;;;;;;-1.42;66.99;95864.66;6375046;27;20381;-63
2022/01/08 04:01:19;;;;;;;;;;;;;;;-1.57;67.34;95867.78;6374993;27;19923;-63
2022/01/08 04:04:22;;;;;;;;;;;;;;;-1.72;68.10;95871.69;6374815;27;19969;-63
2022/01/08 04:07:23;;;;;;;;;;;;;;;-2.10;68.97;95867.75;6373842;27;19930;-63
2022/01/08 04:10:26;;;;;;;;;;;;;;;-1.95;69.36;95869.88;6374273;27;19945;-63
2022/01/08 04:13:33;;;;;;;;;;;;;;;-1.98;69.27;95875.13;6374677;27;19929;-63
2022/01/08 04:16:38;;;;;;;;;;;;;;;-2.10;69.38;95883.22;6374566;27;20004;-63
2022/01/08 04:19:41;;;;;;;;;;;;;;;-2.09;69.53;95880.59;6355335;27;20011;-63
2022/01/08 04:22:47;;;;;;;;;;;;;;;-1.90;68.69;95880.84;6374400;27;19923;-63
2022/01/08 04:25:52;;;;;;;;;;;;;;;-2.02;68.58;95881.25;6373484;27;20392;-63
2022/01/08 04:28:56;;;;;;;;;;;;;;;-1.84;68.88;95882.41;6374072;27;19923;-63
2022/01/08 04:31:59;;;;;;;;;;;;;;;-1.93;68.79;95880.94;6374173;27;19923;-63
2022/01/08 04:35:00;;;;;;;;;;;;;;;-1.93;69.11;95880.94;6374021;27;19930;-62
2022/01/08 04:38:04;;;;;;;;;;;;;;;-1.89;69.00;95877.41;6373984;27;19930;-63
2022/01/08 04:41:05;;;;;;;;;;;;;;;-1.86;69.60;95882.47;6373814;27;19946;-63
2022/01/08 04:44:07;;;;;;;;;;;;;;;-1.74;69.72;95885.53;6373486;27;19934;-63
2022/01/08 04:47:10;;;;;;;;;;;;;;;-1.78;69.52;95884.81;6373955;27;19923;-63
2022/01/08 04:50:12;;;;;;;;;;;;;;;-1.77;69.95;95885.63;6372881;27;19931;-63
2022/01/08 04:53:13;;;;;;;;;;;;;;;-1.77;70.11;95875.31;6372784;27;19930;-62
2022/01/08 04:56:16;;;;;;;;;;;;;;;-1.69;70.04;95881.91;6373749;27;19923;-63
2022/01/08 04:59:17;;;;;;;;;;;;;;;-1.72;70.33;95883.75;6372835;27;19935;-63
2022/01/08 05:02:21;;;;;;;;;;;;;;;-1.66;69.92;95881.81;6373338;27;19923;-64
2022/01/08 05:05:22;;;;;;;;;;;;;;;-1.62;69.47;95874.81;6372754;27;19930;-62
2022/01/08 05:08:23;;;;;;;;;;;;;;;-1.53;69.49;95869.34;6372411;27;19968;-64
2022/01/08 05:11:27;;;;;;;;;;;;;;;-1.65;69.53;95869.75;6372634;27;20060;-63
2022/01/08 05:14:31;;;;;;;;;;;;;;;-1.49;69.17;95860.63;6373171;27;20396;-64
2022/01/08 05:17:35;;;;;;;;;;;;;;;-1.53;69.81;95869.34;6372860;27;19923;-63
2022/01/08 05:20:44;;;;;;;;;;;;;;;-1.53;69.62;95869.34;6372566;27;20285;-63
2022/01/08 05:23:47;;;;;;;;;;;;;;;-1.48;69.48;95862.28;6372147;27;19923;-63
2022/01/08 05:26:49;;;;;;;;;;;;;;;-1.37;68.95;95855.03;6372895;27;20302;-63
2022/01/08 05:29:52;;;;;;;;;;;;;;;-1.32;68.83;95844.56;6372189;27;19923;-63
2022/01/08 05:32:56;;;;;;;;;;;;;;;-1.43;69.28;95833.78;6372576;27;19923;-62
2022/01/08 05:36:02;;;;;;;;;;;;;;;-1.34;68.36;95837.78;6355052;27;20009;-63
2022/01/08 05:39:05;;;;;;;;;;;;;;;-1.38;69.18;95835.28;6372416;27;19931;-63
2022/01/08 05:42:08;;;;;;;;;;;;;;;-1.27;68.23;95849.56;6372300;27;19927;-63
2022/01/08 05:45:10;;;;;;;;;;;;;;;-1.27;68.31;95840.09;6371713;27;19930;-63
2022/01/08 05:48:12;;;;;;;;;;;;;;;-1.29;68.50;95835.88;6372330;27;20308;-63
2022/01/08 05:51:13;;;;;;;;;;;;;;;-1.28;69.34;95840.97;6370816;27;19924;-63
2022/01/08 05:54:16;;;;;;;;;;;;;;;-1.29;69.39;95831.56;6354109;27;20319;-63
2022/01/08 05:57:17;;;;;;;;;;;;;;;-1.39;70.09;95819.84;6372035;27;20396;-62
2022/01/08 06:00:18;;;;;;;;;;;;;;;-1.18;69.19;95833.75;6371773;27;20069;-63
2022/01/08 06:03:19;;;;;;;;;;;;;;;-1.05;68.16;95819.50;6372132;27;19931;-63
2022/01/08 06:06:23;;;;;;;;;;;;;;;-1.04;67.72;95816.03;6371916;27;19973;-64
2022/01/08 06:09:26;;;;;;;;;;;;;;;-1.06;68.40;95824.72;6353860;27;20016;-63
2022/01/08 06:12:30;;;;;;;;;;;;;;;-1.09;69.47;95828.25;6371800;27;19924;-64
2022/01/08 06:15:34;;;;;;;;;;;;;;;-1.11;69.83;95819.72;6371738;27;20018;-63
2022/01/08 06:18:35;;;;;;;;;;;;;;;-1.15;70.38;95823.31;6371729;27;20079;-63
2022/01/08 06:21:36;;;;;;;;;;;;;;;-1.23;70.87;95831.34;6371535;27;20026;-63
2022/01/08 06:24:40;;;;;;;;;;;;;;;-1.26;71.40;95825.44;6371369;28;19923;-63
2022/01/08 06:27:44;;;;;;;;;;;;;;;-1.14;71.44;95814.69;6371639;28;19931;-64
2022/01/08 06:30:47;;;;;;;;;;;;;;;-1.09;71.73;95820.53;6370952;28;19924;-64
2022/01/08 06:33:51;;;;;;;;;;;;;;;-1.22;71.84;95807.22;6371455;28;19924;-63
2022/01/08 06:36:57;;;;;;;;;;;;;;;-1.04;71.37;95816.03;6371776;28;19931;-63
2022/01/08 06:40:00;;;;;;;;;;;;;;;-0.97;71.44;95812.31;6371060;28;20014;-63
2022/01/08 06:43:02;;;;;;;;;;;;;;;-0.82;70.51;95815.22;6371430;28;20009;-63
2022/01/08 06:46:06;;;;;;;;;;;;;;;-0.68;69.60;95802.66;6371677;28;19927;-62
2022/01/08 06:49:08;;;;;;;;;;;;;;;-0.51;68.11;95807.19;6370571;28;19924;-63
2022/01/08 06:52:12;;;;;;;;;;;;;;;-0.40;66.91;95796.44;6371389;28;19923;-63
2022/01/08 06:55:14;;;;;;;;;;;;;;;-0.44;66.67;95802.63;6370451;28;20100;-63
2022/01/08 06:58:20;;;;;;;;;;;;;;;-0.46;66.40;95798.34;6371232;28;19923;-64
2022/01/08 07:01:22;;;;;;;;;;;;;;;-0.30;65.44;95797.75;6370810;28;20323;-63
2022/01/08 07:04:23;;;;;;;;;;;;;;;-0.11;65.72;95801.31;6372678;27;19927;-64
2022/01/08 07:07:24;;;;;;;;;;;;;;;-0.12;65.18;95791.84;6375241;27;19946;-63
2022/01/08 07:10:25;;;;;;;;;;;;;;;-0.30;64.97;95788.25;6375528;27;19923;-64
2022/01/08 07:13:26;;;;;;;;;;;;;;;-0.29;66.85;95795.09;6375684;27;19929;-64
2022/01/08 07:16:30;;;;;;;;;;;;;;;-0.16;66.46;95790.31;6375748;27;19937;-64
2022/01/08 07:19:31;;;;;;;;;;;;;;;0.03;66.40;95782.66;6375336;27;19923;-63
2022/01/08 07:22:32;;;;;;;;;;;;;;;0.24;64.83;95778.31;6374953;27;20380;-63
2022/01/08 07:25:35;;;;;;;;;;;;;;;0.67;63.74;95777.34;6374750;27;20018;-62
2022/01/08 07:28:38;;;;;;;;;;;;;;;2.88;57.83;95786.75;6375111;27;19923;-62
2022/01/08 07:31:44;;;;;;;;;;;;;;;5.07;51.70;95786.66;6375127;27;20026;-62
2022/01/08 07:34:47;;;;;;;;;;;;;;;5.90;47.71;95786.72;6375265;27;19924;-63
2022/01/08 07:37:49;;;;;;;;;;;;;;;6.09;45.51;95782.03;6374279;27;20295;-63
2022/01/08 07:40:52;;;;;;;;;;;;;;;5.16;47.03;95780.88;6375045;27;19969;-62
2022/01/08 07:43:54;;;;;;;;;;;;;;;4.26;49.16;95784.44;6374399;27;19923;-63
2022/01/08 07:46:57;;;;;;;;;;;;;;;2.70;52.51;95799.75;6375046;27;19958;-62
2022/01/08 07:49:58;;;;;;;;;;;;;;;1.49;56.15;95791.84;6374450;27;20396;-63
2022/01/08 07:53:01;;;;;;;;;;;;;;;0.81;59.71;95789.69;6374895;27;20316;-64
2022/01/08 07:56:07;;;;;;;;;;;;;;;0.46;62.82;95792.97;6374846;27;19923;-63
2022/01/08 07:59:08;;;;;;;;;;;;;;;-0.07;67.29;95795.09;6373635;27;20290;-62
2022/01/08 08:02:11;;;;;;;;;;;;;;;-0.62;71.24;95792.09;6374522;27;20029;-62
2022/01/08 08:05:12;;;;;;;;;;;;;;;-0.81;70.38;95791.13;6374582;27;19923;-62
2022/01/08 08:08:17;;;;;;;;;;;;;;;-1.21;71.12;95792.56;6374326;27;19939;-62
2022/01/08 08:11:18;;;;;;;;;;;;;;;-1.29;72.81;95779.09;6375114;27;19930;-62
2022/01/08 08:14:23;;;;;;;;;;;;;;;-0.15;70.39;95780.78;6373839;27;19925;-61
2022/01/08 08:17:24;;;;;;;;;;;;;;;3.27;62.78;95777.78;6374533;27;19924;-61
2022/01/08 08:20:25;;;;;;;;;;;;;;;6.40;54.52;95780.88;6373903;27;19923;-62
2022/01/08 08:23:28;;;;;;;;;;;;;;;8.74;47.38;95794.16;6374099;27;20385;-62
2022/01/08 08:26:30;;;;;;;;;;;;;;;10.26;41.54;95808.66;6374117;27;19931;-61
2022/01/08 08:29:31;;;;;;;;;;;;;;;11.78;37.30;95799.47;6372902;27;19923;-61
2022/01/08 08:32:32;;;;;;;;;;;;;;;12.41;33.87;95816.88;6373287;27;19923;-62
2022/01/08 08:35:33;;;;;;;;;;;;;;;12.34;31.33;95811.28;6373314;27;19923;-62
2022/01/08 08:38:36;;;;;;;;;;;;;;;12.58;29.29;95814.38;6373834;27;20073;-62
2022/01/08 08:41:37;;;;;;;;;;;;;;;12.51;26.92;95809.78;6373734;27;19935;-61
2022/01/08 08:44:38;;;;;;;;;;;;;;;11.87;27.24;95824.22;6372903;27;19923;-62
2022/01/08 08:47:42;;;;;;;;;;;;;;;10.85;29.53;95825.81;6373453;27;19923;-62
2022/01/08 08:50:43;;;;;;;;;;;;;;;12.06;27.98;95834.84;6372532;27;19924;-63
2022/01/08 08:53:44;;;;;;;;;;;;;;;13.29;25.20;95823.84;6372578;27;19923;-63
2022/01/08 08:56:48;;;;;;;;;;;;;;;13.67;26.51;95837.91;6373108;27;20337;-62
2022/01/08 08:59:49;;;;;;;;;;;;;;;14.46;25.46;95849.81;6372889;27;19924;-62
2022/01/08 09:02:50;;;;;;;;;;;;;;;14.53;24.89;95848.28;6371886;27;20407;-62
2022/01/08 09:05:51;;;;;;;;;;;;;;;13.69;24.98;95862.41;6372381;27;19923;-63
2022/01/08 09:08:56;;;;;;;;;;;;;;;12.27;26.43;95837.38;6372857;27;19923;-63
2022/01/08 09:11:57;;;;;;;;;;;;;;;10.89;28.82;95837.75;6373014;27;19931;-62
2022/01/08 09:15:00;;;;;;;;;;;;;;;9.72;32.04;95836.56;6371836;27;19929;-63
2022/01/08 09:18:07;;;;;;;;;;;;;;;9.27;32.56;95841.78;6372379;27;19923;-62
2022/01/08 09:21:08;;;;;;;;;;;;;;;9.07;33.48;95850.31;6371822;27;20027;-63
2022/01/08 09:24:10;;;;;;;;;;;;;;;8.82;33.86;95840.81;6371693;27;20304;-62
2022/01/08 09:27:11;;;;;;;;;;;;;;;8.53;34.64;95842.00;6370517;27;19923;-63
2022/01/08 09:30:16;;;;;;;;;;;;;;;8.64;34.24;95829.91;6372693;27;19923;-63
2022/01/08 09:33:20;;;;;;;;;;;;;;;8.34;33.01;95844.28;6372550;27;19923;-63
2022/01/08 09:36:26;;;;;;;;;;;;;;;8.20;33.10;95849.66;6372497;27;20388;-63
2022/01/08 09:39:29;;;;;;;;;;;;;;;7.69;33.13;95855.84;6372263;27;19927;-63
2022/01/08 09:42:30;;;;;;;;;;;;;;;7.78;32.04;95857.00;6371435;27;19923;-62
2022/01/08 09:45:36;;;;;;;;;;;;;;;8.24;30.45;95856.38;6372321;27;19980;-62
2022/01/08 09:48:40;;;;;;;;;;;;;;;8.47;29.39;95852.97;6372493;27;19923;-63
2022/01/08 09:51:41;;;;;;;;;;;;;;;8.12;29.00;95863.31;6372129;27;20011;-63
2022/01/08 09:54:44;;;;;;;;;;;;;;;8.19;29.67;95874.22;6372106;27;19923;-62
2022/01/08 09:57:45;;;;;;;;;;;;;;;8.51;29.30;95870.13;6371043;27;19923;-63
2022/01/08 10:00:47;;;;;;;;;;;;;;;9.32;28.52;95880.81;6370762;27;19927;-64
2022/01/08 10:03:55;;;;;;;;;;;;;;;9.97;28.28;95877.53;6371525;27;20388;-64
2022/01/08 10:07:15;;;;;;;;;;;;;;;9.96;26.49;95875.00;6371021;27;20431;-62
2022/01/08 10:10:20;;;;;;;;;;;;;;;10.31;26.83;95875.72;6371630;27;19923;-63
2022/01/08 10:13:28;;;;;;;;;;;;;;;10.55;25.81;95877.34;6371864;27;19923;-63
2022/01/08 10:19:49;;;;;;;;;;;;;;;7.51;29.68;95889.38;6370234;27;20292;-64
2022/01/08 10:22:57;;;;;;;;;;;;;;;4.72;33.66;95902.47;6371401;27;20068;-63
2022/01/08 10:26:03;;;;;;;;;;;;;;;2.41;38.05;95904.25;6352452;28;20300;-63
2022/01/08 10:29:14;;;;;;;;;;;;;;;1.19;40.39;95903.75;6353437;28;20387;-63
2022/01/08 10:32:25;;;;;;;;;;;;;;;0.88;41.55;95914.59;6371242;28;19927;-63
2022/01/08 10:35:45;;;;;;;;;;;;;;;0.06;42.78;95929.09;6352353;28;20388;-63
2022/01/08 10:38:52;;;;;;;;;;;;;;;0.17;42.46;95919.16;6374810;27;19931;-63
2022/01/08 10:41:54;;;;;;;;;;;;;;;-0.31;44.33;95920.13;6375913;27;19924;-63
2022/01/08 10:44:57;;;;;;;;;;;;;;;-0.64;45.66;95917.91;6376433;27;19924;-62
2022/01/08 10:48:03;;;;;;;;;;;;;;;-0.83;45.92;95922.88;6376756;27;19924;-63
2022/01/08 10:51:10;;;;;;;;;;;;;;;-1.24;47.29;95947.53;6376538;27;19923;-65
2022/01/08 10:54:12;;;;;;;;;;;;;;;-1.54;48.17;95939.91;6376382;27;19923;-63
2022/01/08 10:57:16;;;;;;;;;;;;;;;-1.52;48.91;95948.44;6376233;27;20304;-63
2022/01/08 11:00:17;;;;;;;;;;;;;;;-1.64;49.47;95941.09;6375509;27;19955;-63
2022/01/08 11:03:37;;;;;;;;;;;;;;;-2.01;50.56;95944.78;6376082;27;19930;-63
2022/01/08 11:06:54;;;;;;;;;;;;;;;-2.20;51.61;95954.00;6376017;27;19923;-64
2022/01/08 11:09:56;;;;;;;;;;;;;;;-2.50;52.82;95964.28;6357667;27;19924;-63
2022/01/08 11:12:58;;;;;;;;;;;;;;;-2.60;53.56;95955.13;6375050;27;19927;-64
2022/01/08 11:15:59;;;;;;;;;;;;;;;-2.80;54.27;95945.34;6375822;27;19924;-64
2022/01/08 11:19:02;;;;;;;;;;;;;;;-3.03;54.97;95952.00;6375386;27;20038;-63
2022/01/08 11:22:10;;;;;;;;;;;;;;;-3.33;55.60;95961.34;6375527;27;19923;-64
2022/01/08 11:25:28;;;;;;;;;;;;;;;-3.54;56.29;95961.84;6375646;27;19930;-64
2022/01/08 11:28:37;;;;;;;;;;;;;;;-3.58;56.69;95967.97;6375337;27;19945;-63
2022/01/08 11:31:38;;;;;;;;;;;;;;;-3.83;57.45;95971.09;6375585;27;19924;-63
2022/01/08 11:34:43;;;;;;;;;;;;;;;-3.99;57.96;95977.44;6374681;27;19924;-63
2022/01/08 11:37:49;;;;;;;;;;;;;;;-4.09;57.77;95977.66;6374699;27;19923;-63
2022/01/08 11:40:51;;;;;;;;;;;;;;;-3.98;58.32;95992.00;6373957;27;20400;-63
2022/01/08 11:43:55;;;;;;;;;;;;;;;-4.28;58.42;96002.03;6375299;27;19931;-64
2022/01/08 11:47:00;;;;;;;;;;;;;;;-4.26;58.42;96008.00;6375371;27;19980;-63
2022/01/08 11:50:07;;;;;;;;;;;;;;;-4.03;58.31;96016.94;6374374;27;19923;-63
2022/01/08 11:53:24;;;;;;;;;;;;;;;-4.03;58.21;96016.94;6374365;27;20309;-63
2022/01/08 11:56:32;;;;;;;;;;;;;;;-4.29;58.91;96026.03;6374425;27;20392;-64
2022/01/08 11:59:35;;;;;;;;;;;;;;;-4.30;59.23;96024.38;6374840;27;20389;-64
2022/01/08 12:02:43;;;;;;;;;;;;;;;-4.45;59.87;96027.22;6374591;27;20011;-63
2022/01/08 12:05:44;;;;;;;;;;;;;;;-4.77;60.69;96038.94;6374640;27;19923;-63
2022/01/08 12:09:07;;;;;;;;;;;;;;;-4.81;61.39;96034.72;6374009;27;19966;-64
2022/01/08 12:12:11;;;;;;;;;;;;;;;-4.88;61.19;96038.31;6373569;27;19923;-64
2022/01/08 12:15:16;;;;;;;;;;;;;;;-4.83;61.35;96044.19;6375115;27;20009;-64
2022/01/08 12:18:20;;;;;;;;;;;;;;;-4.96;61.06;96049.53;6373648;27;19934;-64
2022/01/08 12:21:33;;;;;;;;;;;;;;;-4.79;60.47;96046.66;6374409;27;19923;-63
2022/01/08 12:24:35;;;;;;;;;;;;;;;-5.17;61.20;96049.91;6374353;27;19930;-64
2022/01/08 12:27:40;;;;;;;;;;;;;;;-5.23;60.72;96085.91;6374120;27;19930;-64
2022/01/08 12:30:41;;;;;;;;;;;;;;;-5.03;59.21;96063.34;6373512;27;19946;-63
2022/01/08 12:33:42;;;;;;;;;;;;;;;-5.18;59.28;96073.84;6374026;27;19923;-64
2022/01/08 12:36:54;;;;;;;;;;;;;;;-5.35;58.98;96086.09;6373555;27;20424;-63
2022/01/08 12:39:55;;;;;;;;;;;;;;;-5.32;58.29;96097.16;6373808;27;19928;-64
2022/01/08 12:42:56;;;;;;;;;;;;;;;-5.26;57.85;96091.09;6354624;27;19925;-63
2022/01/08 12:46:15;;;;;;;;;;;;;;;-5.62;58.35;96113.81;6373687;27;19923;-63
2022/01/08 12:49:16;;;;;;;;;;;;;;;-5.39;57.38;96104.97;6373650;27;19919;-64
2022/01/08 12:52:17;;;;;;;;;;;;;;;-5.80;57.22;96108.94;6373328;27;19942;-64
2022/01/08 12:55:20;;;;;;;;;;;;;;;-5.80;57.04;96134.56;6355434;27;20300;-64
2022/01/08 12:58:23;;;;;;;;;;;;;;;-6.06;57.47;96143.44;6373047;27;19923;-64
2022/01/08 13:01:28;;;;;;;;;;;;;;;-5.82;56.60;96149.13;6371885;27;19923;-64
2022/01/08 13:04:29;;;;;;;;;;;;;;;-6.04;57.17;96159.66;6372261;27;19931;-64
2022/01/08 13:07:30;;;;;;;;;;;;;;;-6.21;57.77;96174.34;6372232;27;19919;-64
2022/01/08 13:10:33;;;;;;;;;;;;;;;-6.36;58.62;96181.31;6372814;27;19959;-64
2022/01/08 13:13:43;;;;;;;;;;;;;;;-6.44;58.83;96193.34;6371847;27;20518;-63
2022/01/08 13:16:47;;;;;;;;;;;;;;;-6.77;59.37;96195.31;6372011;27;20304;-64
2022/01/08 13:20:00;;;;;;;;;;;;;;;-6.70;59.55;96210.66;6372465;27;20375;-64
2022/01/08 13:23:03;;;;;;;;;;;;;;;-6.77;58.28;96209.84;6372686;27;19930;-64
2022/01/08 13:26:04;;;;;;;;;;;;;;;-6.60;55.78;96217.38;6371760;27;20026;-63
2022/01/08 13:29:19;;;;;;;;;;;;;;;-6.73;54.59;96226.03;6371916;27;19919;-64
2022/01/08 13:32:23;;;;;;;;;;;;;;;-7.06;54.61;96230.50;6371729;27;20294;-64
2022/01/08 13:35:25;;;;;;;;;;;;;;;-7.31;55.29;96245.13;6371640;27;20412;-63
2022/01/08 13:38:29;;;;;;;;;;;;;;;-7.47;55.91;96246.94;6372585;27;19923;-64
2022/01/08 13:41:33;;;;;;;;;;;;;;;-7.75;56.12;96252.16;6372282;27;19923;-65
2022/01/08 13:44:36;;;;;;;;;;;;;;;-7.60;55.61;96265.72;6372540;27;19929;-63
2022/01/08 13:47:42;;;;;;;;;;;;;;;-7.71;55.53;96279.38;6372095;27;20056;-64
2022/01/08 13:50:53;;;;;;;;;;;;;;;-7.44;54.14;96282.69;6372134;27;19968;-63
2022/01/08 13:53:58;;;;;;;;;;;;;;;-7.47;54.38;96287.81;6372051;27;19919;-64
2022/01/08 13:57:12;;;;;;;;;;;;;;;-7.69;55.20;96293.00;6371917;27;19930;-64
2022/01/08 14:00:21;;;;;;;;;;;;;;;-7.87;55.28;96298.13;6371802;27;20393;-64
2022/01/08 14:03:25;;;;;;;;;;;;;;;-7.98;55.35;96307.50;6353252;27;20277;-64
2022/01/08 14:06:28;;;;;;;;;;;;;;;-7.84;54.60;96318.59;6372118;27;19934;-64
2022/01/08 14:09:32;;;;;;;;;;;;;;;-8.09;55.23;96322.03;6371947;27;19923;-65
2022/01/08 14:12:33;;;;;;;;;;;;;;;-8.20;55.75;96320.31;6352055;27;19931;-63
2022/01/08 14:15:34;;;;;;;;;;;;;;;-8.05;55.05;96324.56;6371566;27;19923;-66
2022/01/08 14:18:37;;;;;;;;;;;;;;;-8.38;56.05;96350.94;6370984;27;19930;-66
2022/01/08 14:21:57;;;;;;;;;;;;;;;-8.48;56.28;96350.13;6370470;27;19923;-63
2022/01/08 14:24:59;;;;;;;;;;;;;;;-8.48;56.17;96354.38;6371629;27;19927;-64
2022/01/08 14:28:13;;;;;;;;;;;;;;;-8.55;56.61;96348.41;6353327;28;20299;-63
2022/01/08 14:31:17;;;;;;;;;;;;;;;-8.62;56.69;96359.47;6371023;28;20003;-63
2022/01/08 14:34:22;;;;;;;;;;;;;;;-8.70;56.58;96351.78;6371643;28;19930;-64
2022/01/08 14:37:32;;;;;;;;;;;;;;;-8.71;56.55;96362.84;6371274;28;20393;-63
2022/01/08 14:40:35;;;;;;;;;;;;;;;-8.96;56.89;96356.84;6371459;28;19927;-63
2022/01/08 14:43:36;;;;;;;;;;;;;;;-8.90;57.01;96366.19;6370690;28;19927;-64
2022/01/08 14:46:45;;;;;;;;;;;;;;;-8.86;56.53;96352.59;6370763;28;19931;-65
2022/01/08 14:49:46;;;;;;;;;;;;;;;-8.83;55.97;96363.69;6370973;28;19923;-64
2022/01/08 14:52:51;;;;;;;;;;;;;;;-9.01;56.53;96368.72;6371418;28;20015;-64
2022/01/08 14:55:57;;;;;;;;;;;;;;;-8.89;55.86;96358.56;6371514;28;19924;-64
2022/01/08 14:58:58;;;;;;;;;;;;;;;-8.84;55.63;96372.16;6371241;28;19930;-64
2022/01/08 15:01:59;;;;;;;;;;;;;;;-8.86;55.84;96367.91;6370438;28;19931;-64
2022/01/08 15:05:02;;;;;;;;;;;;;;;-9.06;55.83;96389.09;6371173;28;19931;-63
2022/01/08 15:08:06;;;;;;;;;;;;;;;-8.94;55.47;96387.44;6371259;28;19924;-64
2022/01/08 15:11:13;;;;;;;;;;;;;;;-8.93;55.50;96402.72;6370925;28;19919;-63
2022/01/08 15:14:14;;;;;;;;;;;;;;;-8.91;55.31;96410.41;6371129;28;20393;-63
2022/01/08 15:17:19;;;;;;;;;;;;;;;-9.12;56.48;96411.13;6371135;28;19923;-64
2022/01/08 15:20:23;;;;;;;;;;;;;;;-9.15;56.55;96414.53;6370812;28;20004;-64
2022/01/08 15:23:24;;;;;;;;;;;;;;;-9.20;57.06;96420.44;6370167;27;19923;-64
2022/01/08 15:26:25;;;;;;;;;;;;;;;-9.36;57.75;96407.66;6374044;27;19931;-64
2022/01/08 15:29:27;;;;;;;;;;;;;;;-9.02;57.21;96419.69;6375115;27;19935;-66
2022/01/08 15:32:28;;;;;;;;;;;;;;;-9.19;57.60;96420.47;6374900;27;19966;-64
2022/01/08 15:35:29;;;;;;;;;;;;;;;-9.40;58.79;96416.09;6356968;27;19924;-64
2022/01/08 15:38:33;;;;;;;;;;;;;;;-9.33;58.66;96430.59;6375317;27;19927;-63
2022/01/08 15:41:35;;;;;;;;;;;;;;;-9.25;59.13;96425.53;6374955;27;19923;-64
2022/01/08 15:44:37;;;;;;;;;;;;;;;-9.26;59.46;96434.00;6374849;27;19923;-64
2022/01/08 15:47:40;;;;;;;;;;;;;;;-9.70;59.94;96441.41;6356403;27;19927;-63
2022/01/08 15:50:45;;;;;;;;;;;;;;;-9.69;60.57;96441.41;6374592;27;19980;-64
2022/01/08 15:53:46;;;;;;;;;;;;;;;-9.75;60.88;96443.91;6374759;27;19955;-65
2022/01/08 15:56:47;;;;;;;;;;;;;;;-9.32;60.77;96449.25;6375233;27;19930;-65
2022/01/08 15:59:50;;;;;;;;;;;;;;;-9.85;61.58;96458.25;6374892;27;20305;-64
2022/01/08 16:02:52;;;;;;;;;;;;;;;-9.47;60.94;96439.00;6374763;27;19923;-64
2022/01/08 16:05:55;;;;;;;;;;;;;;;-9.46;60.51;96464.47;6374739;27;19923;-63
2022/01/08 16:08:56;;;;;;;;;;;;;;;-9.53;60.51;96455.94;6374916;27;19925;-63
2022/01/08 16:11:58;;;;;;;;;;;;;;;-9.64;61.03;96447.38;6374879;27;19928;-64
2022/01/08 16:14:58;;;;;;;;;;;;;;;-9.79;60.94;96467.66;6374373;27;19926;-64
2022/01/08 16:18:02;;;;;;;;;;;;;;;-9.65;60.79;96476.25;6355984;27;19923;-63